createdAt,value
2018-10-02T00:01:45.973Z,92.20
2018-10-02T00:04:15.625Z,92.40
2018-10-02T00:06:45.340Z,92.08
2018-10-02T00:09:16.125Z,91.85
2018-10-02T00:11:50.770Z,92.19
2018-10-02T00:14:25.357Z,92.30
2018-10-02T00:16:55.913Z,91.93
2018-10-02T00:19:39.884Z,92.17
2018-10-02T00:22:09.665Z,92.54
2018-10-02T00:24:39.599Z,92.44
2018-10-02T00:27:10.316Z,92.03
2018-10-02T00:29:41.917Z,91.85
2018-10-02T00:32:12.032Z,92.68
2018-10-02T00:34:43.124Z,92.19
2018-10-02T00:37:13.598Z,92.37
2018-10-02T00:39:44.721Z,92.18
2018-10-02T00:42:15.078Z,91.83
2018-10-02T00:44:45.798Z,92.32
2018-10-02T00:47:15.978Z,92.27
2018-10-02T00:49:47.284Z,92.40
2018-10-02T00:52:23.617Z,92.26
2018-10-02T00:54:53.957Z,92.45
2018-10-02T00:57:26.978Z,92.68
2018-10-02T00:59:58.477Z,92.45
2018-10-02T01:02:29.617Z,92.24
2018-10-02T01:05:00.857Z,92.48
2018-10-02T01:07:31.716Z,92.57
2018-10-02T01:10:02.737Z,92.40
2018-10-02T01:12:33.798Z,92.70
2018-10-02T01:15:07.437Z,92.71
2018-10-02T01:20:50.741Z,92.18
2018-10-02T01:29:02.345Z,92.52
2018-10-02T01:31:51.079Z,92.95
2018-10-02T01:34:21.517Z,93.08
2018-10-02T01:36:51.716Z,92.87
2018-10-02T01:39:21.543Z,92.68
2018-10-02T01:41:51.605Z,92.72
2018-10-02T01:44:21.657Z,92.65
2018-10-02T01:46:51.896Z,92.74
2018-10-02T01:49:21.800Z,92.54
2018-10-02T01:51:51.917Z,92.52
2018-10-02T01:54:21.977Z,93.22
2018-10-02T01:56:52.117Z,93.11
2018-10-02T01:59:22.158Z,92.56
2018-10-02T02:01:52.325Z,92.56
2018-10-02T02:04:22.258Z,92.75
2018-10-02T02:06:52.877Z,92.95
2018-10-02T02:09:23.357Z,92.38
2018-10-02T02:11:53.517Z,92.55
2018-10-02T02:14:23.547Z,93.20
2018-10-02T02:16:54.104Z,92.57
2018-10-02T02:19:24.316Z,92.62
2018-10-02T02:21:54.217Z,92.43
2018-10-02T02:24:24.165Z,92.34
2018-10-02T02:26:53.999Z,92.00
2018-10-02T02:29:23.857Z,92.43
2018-10-02T02:31:53.787Z,92.71
2018-10-02T02:34:23.757Z,91.84
2018-10-02T02:36:53.820Z,91.95
2018-10-02T02:39:23.757Z,92.57
2018-10-02T02:41:54.457Z,92.31
2018-10-02T02:44:24.957Z,92.27
2018-10-02T02:46:55.137Z,92.15
2018-10-02T02:49:30.877Z,91.74
2018-10-02T02:52:03.417Z,92.21
2018-10-02T02:54:33.557Z,91.94
2018-10-02T02:59:47.597Z,91.90
2018-10-02T03:02:17.777Z,91.77
2018-10-02T03:04:47.621Z,92.39
2018-10-02T03:07:17.358Z,92.31
2018-10-02T03:09:47.417Z,92.17
2018-10-02T03:12:17.538Z,92.01
2018-10-02T03:14:47.945Z,91.61
2018-10-02T03:17:18.237Z,92.02
2018-10-02T03:19:48.317Z,92.45
2018-10-02T03:22:18.878Z,92.62
2018-10-02T03:24:48.958Z,92.50
2018-10-02T03:27:19.117Z,92.12
2018-10-02T03:29:49.757Z,92.38
2018-10-02T03:32:20.903Z,91.88
2018-10-02T03:34:51.070Z,91.93
2018-10-02T03:37:21.118Z,92.29
2018-10-02T03:39:53.309Z,91.60
2018-10-02T03:42:24.567Z,91.86
2018-10-02T03:44:54.827Z,91.91
2018-10-02T03:47:25.594Z,91.49
2018-10-02T03:49:55.712Z,91.67
2018-10-02T03:52:26.212Z,91.69
2018-10-02T03:54:56.496Z,91.57
2018-10-02T03:57:26.576Z,91.96
2018-10-02T03:59:56.663Z,91.53
2018-10-02T04:02:26.847Z,91.34
2018-10-02T04:04:56.838Z,91.46
2018-10-02T04:07:26.981Z,91.26
2018-10-02T04:09:56.917Z,91.54
2018-10-02T04:12:27.161Z,91.49
2018-10-02T04:14:56.844Z,91.60
2018-10-02T04:17:26.872Z,91.78
2018-10-02T04:19:57.130Z,91.78
2018-10-02T04:22:27.356Z,91.69
2018-10-02T04:24:57.869Z,91.24
2018-10-02T04:27:28.340Z,91.29
2018-10-02T04:29:58.315Z,91.36
2018-10-02T04:32:28.757Z,91.60
2018-10-02T04:34:58.434Z,91.79
2018-10-02T04:37:28.510Z,91.66
2018-10-02T04:39:58.410Z,91.43
2018-10-02T04:42:28.397Z,91.50
2018-10-02T04:44:58.305Z,91.51
2018-10-02T04:47:28.400Z,91.92
2018-10-02T04:49:58.641Z,91.29
2018-10-02T04:52:29.640Z,91.21
2018-10-02T04:54:59.478Z,91.27
2018-10-02T04:57:29.538Z,91.42
2018-10-02T04:59:59.499Z,91.36
2018-10-02T05:02:29.362Z,91.48
2018-10-02T05:04:59.806Z,91.16
2018-10-02T05:07:29.836Z,91.23
2018-10-02T05:09:59.854Z,91.30
2018-10-02T05:12:30.056Z,91.53
2018-10-02T05:15:00.864Z,91.53
2018-10-02T05:17:31.017Z,91.41
2018-10-02T05:20:00.973Z,91.30
2018-10-02T05:22:30.912Z,91.77
2018-10-02T05:25:00.944Z,91.51
2018-10-02T05:27:30.975Z,91.47
2018-10-02T05:30:00.839Z,91.88
2018-10-02T05:32:30.731Z,91.61
2018-10-02T05:35:00.732Z,91.61
2018-10-02T05:37:30.725Z,91.67
2018-10-02T05:40:00.543Z,92.00
2018-10-02T05:42:30.406Z,91.58
2018-10-02T05:45:00.359Z,91.72
2018-10-02T05:47:30.417Z,92.07
2018-10-02T05:50:00.185Z,92.02
2018-10-02T05:52:30.253Z,91.89
2018-10-02T05:55:00.164Z,91.90
2018-10-02T05:57:30.760Z,91.51
2018-10-02T06:00:00.807Z,91.82
2018-10-02T06:02:32.549Z,91.69
2018-10-02T06:05:02.243Z,91.67
2018-10-02T06:07:32.315Z,91.45
2018-10-02T06:10:02.180Z,91.75
2018-10-02T06:12:32.022Z,91.71
2018-10-02T06:15:01.939Z,91.84
2018-10-02T06:17:31.785Z,91.70
2018-10-02T06:20:01.619Z,91.89
2018-10-02T06:22:31.564Z,91.66
2018-10-02T06:25:01.291Z,92.04
2018-10-02T06:27:31.114Z,92.33
2018-10-02T06:30:01.141Z,92.67
2018-10-02T06:32:31.097Z,92.23
2018-10-02T06:35:00.998Z,92.46
2018-10-02T06:37:31.662Z,92.46
2018-10-02T06:40:01.430Z,92.16
2018-10-02T06:42:31.518Z,92.22
2018-10-02T06:45:01.324Z,92.74
2018-10-02T06:47:31.444Z,92.75
2018-10-02T06:50:01.270Z,92.42
2018-10-02T06:52:31.509Z,92.67
2018-10-02T06:55:00.993Z,92.75
2018-10-02T06:57:31.083Z,92.22
2018-10-02T07:00:00.821Z,92.51
2018-10-02T07:02:30.891Z,92.21
2018-10-02T07:05:00.870Z,92.51
2018-10-02T07:07:30.845Z,92.14
2018-10-02T07:10:00.809Z,91.84
2018-10-02T07:12:30.597Z,91.62
2018-10-02T07:15:00.486Z,91.28
2018-10-02T07:17:31.187Z,91.27
2018-10-02T07:20:01.128Z,90.55
2018-10-02T07:22:31.238Z,90.09
2018-10-02T07:25:01.050Z,90.34
2018-10-02T07:27:31.020Z,90.23
2018-10-02T07:30:00.752Z,89.33
2018-10-02T07:32:30.926Z,88.16
2018-10-02T07:35:00.665Z,88.35
2018-10-02T07:37:30.432Z,88.65
2018-10-02T07:40:00.369Z,88.80
2018-10-02T07:42:30.409Z,88.71
2018-10-02T07:45:00.395Z,88.61
2018-10-02T07:47:30.548Z,88.26
2018-10-02T07:50:00.534Z,88.01
2018-10-02T07:52:31.789Z,87.34
2018-10-02T07:55:01.618Z,86.12
2018-10-02T07:57:31.771Z,85.78
2018-10-02T08:00:01.841Z,86.03
2018-10-02T08:02:31.885Z,84.66
2018-10-02T08:05:02.001Z,84.73
2018-10-02T08:07:31.905Z,84.21
2018-10-02T08:10:01.929Z,84.36
2018-10-02T08:12:31.959Z,85.04
2018-10-02T08:15:01.763Z,84.85
2018-10-02T08:17:31.748Z,84.98
2018-10-02T08:20:01.811Z,84.95
2018-10-02T08:22:31.844Z,84.97
2018-10-02T08:25:01.630Z,81.04
2018-10-02T08:27:32.136Z,81.93
2018-10-02T08:30:02.267Z,80.95
2018-10-02T08:32:32.195Z,81.09
2018-10-02T08:35:02.321Z,81.00
2018-10-02T08:37:32.370Z,79.36
2018-10-02T08:40:02.108Z,79.53
2018-10-02T08:42:32.189Z,80.50
2018-10-02T08:45:02.001Z,79.60
2018-10-02T08:47:31.864Z,78.12
2018-10-02T08:50:01.792Z,77.13
2018-10-02T08:52:31.612Z,76.40
2018-10-02T08:55:01.397Z,74.24
2018-10-02T08:57:31.303Z,72.05
2018-10-02T09:00:01.168Z,71.59
2018-10-02T09:02:30.993Z,73.33
2018-10-02T09:05:00.818Z,73.62
2018-10-02T09:07:30.726Z,71.70
2018-10-02T09:10:00.520Z,70.38
2018-10-02T09:12:30.403Z,67.82
2018-10-02T09:15:00.346Z,67.37
2018-10-02T09:17:30.128Z,65.86
2018-10-02T09:20:00.162Z,68.46
2018-10-02T09:22:30.015Z,67.10
2018-10-02T09:24:59.919Z,65.92
2018-10-02T09:27:29.645Z,65.00
2018-10-02T09:30:04.508Z,65.86
2018-10-02T09:32:39.377Z,66.48
2018-10-02T09:35:14.304Z,63.25
2018-10-02T09:37:49.159Z,62.53
2018-10-02T09:40:23.905Z,59.24
2018-10-02T09:42:59.507Z,55.64
2018-10-02T09:45:29.417Z,55.52
2018-10-02T09:48:03.350Z,57.26
2018-10-02T09:50:33.180Z,55.60
2018-10-02T09:53:03.211Z,55.06
2018-10-02T09:55:33.661Z,51.66
2018-10-02T09:58:04.545Z,53.51
2018-10-02T10:00:39.269Z,50.56
2018-10-02T10:03:09.256Z,46.30
2018-10-02T10:05:39.158Z,49.15
2018-10-02T10:08:09.491Z,47.46
2018-10-02T10:10:39.263Z,42.27
2018-10-02T10:13:09.289Z,45.51
2018-10-02T10:15:39.110Z,42.87
2018-10-02T10:18:09.163Z,44.73
2018-10-02T10:20:38.903Z,41.87
2018-10-02T10:23:09.250Z,46.04
2018-10-02T10:25:39.298Z,45.36
2018-10-02T10:28:09.145Z,43.28
2018-10-02T10:30:39.005Z,46.89
2018-10-02T10:33:09.552Z,49.07
2018-10-02T10:35:39.444Z,49.15
2018-10-02T10:38:09.531Z,53.08
2018-10-02T10:40:39.395Z,56.51
2018-10-02T10:43:09.160Z,48.11
2018-10-02T10:45:39.069Z,52.08
2018-10-02T10:48:09.022Z,53.72
2018-10-02T10:50:38.684Z,53.26
2018-10-02T10:53:08.678Z,57.54
2018-10-02T10:55:39.708Z,55.18
2018-10-02T10:58:09.485Z,55.56
2018-10-02T11:00:39.214Z,56.60
2018-10-02T11:03:09.144Z,60.00
2018-10-02T11:05:39.369Z,56.97
2018-10-02T11:08:09.236Z,57.43
2018-10-02T11:10:39.216Z,54.88
2018-10-02T11:13:09.090Z,53.56
2018-10-02T11:15:38.984Z,58.29
2018-10-02T11:18:08.882Z,58.04
2018-10-02T11:20:39.550Z,48.95
2018-10-02T11:23:09.302Z,48.67
2018-10-02T11:25:39.173Z,49.85
2018-10-02T11:28:08.890Z,46.76
2018-10-02T11:30:38.880Z,44.88
2018-10-02T11:33:08.661Z,44.86
2018-10-02T11:35:38.945Z,46.39
2018-10-02T11:38:08.883Z,48.41
2018-10-02T11:40:38.659Z,48.37
2018-10-02T11:43:09.951Z,50.46
2018-10-02T11:45:39.789Z,48.65
2018-10-02T11:48:10.443Z,50.58
2018-10-02T11:50:40.210Z,49.17
2018-10-02T11:53:11.383Z,48.52
2018-10-02T11:55:41.341Z,46.03
2018-10-02T11:58:11.070Z,45.01
2018-10-02T12:00:41.290Z,48.99
2018-10-02T12:03:11.190Z,44.03
2018-10-02T12:05:41.138Z,45.44
2018-10-02T12:08:10.951Z,45.80
2018-10-02T12:10:40.881Z,46.59
2018-10-02T12:13:10.727Z,44.25
2018-10-02T12:15:40.481Z,45.63
2018-10-02T12:18:10.405Z,45.05
2018-10-02T12:20:40.381Z,48.56
2018-10-02T12:23:10.784Z,44.02
2018-10-02T12:25:40.680Z,42.92
2018-10-02T12:28:10.508Z,43.86
2018-10-02T12:30:40.577Z,45.13
2018-10-02T12:33:10.260Z,45.50
2018-10-02T12:35:40.232Z,46.02
2018-10-02T12:38:10.099Z,44.75
2018-10-02T12:40:40.175Z,49.09
2018-10-02T12:43:10.033Z,48.85
2018-10-02T12:45:40.161Z,48.87
2018-10-02T12:48:09.997Z,48.12
2018-10-02T12:50:40.169Z,49.43
2018-10-02T12:53:09.977Z,51.68
2018-10-02T12:55:39.912Z,49.34
2018-10-02T12:58:09.751Z,49.26
2018-10-02T13:00:39.847Z,48.20
2018-10-02T13:03:10.888Z,47.63
2018-10-02T13:05:40.713Z,49.39
2018-10-02T13:08:10.425Z,49.45
2018-10-02T13:10:40.249Z,52.52
2018-10-02T13:13:09.946Z,49.73
2018-10-02T13:15:41.046Z,48.73
2018-10-02T13:18:11.050Z,49.63
2018-10-02T13:20:41.547Z,48.66
2018-10-02T13:23:11.446Z,49.36
2018-10-02T13:25:41.315Z,50.10
2018-10-02T13:28:10.820Z,49.74
2018-10-02T13:30:40.550Z,53.92
2018-10-02T13:33:10.360Z,51.25
2018-10-02T13:35:40.713Z,53.25
2018-10-02T13:38:10.794Z,57.70
2018-10-02T13:40:40.972Z,58.75
2018-10-02T13:43:10.645Z,56.35
2018-10-02T13:45:40.383Z,58.40
2018-10-02T13:48:10.104Z,58.12
2018-10-02T13:50:39.925Z,58.44
2018-10-02T13:53:09.814Z,60.38
2018-10-02T13:55:40.359Z,59.89
2018-10-02T13:58:10.504Z,60.36
2018-10-02T14:00:40.486Z,62.92
2018-10-02T14:03:10.344Z,63.35
2018-10-02T14:05:40.327Z,62.43
2018-10-02T14:08:10.299Z,63.76
2018-10-02T14:10:40.202Z,64.46
2018-10-02T14:13:10.460Z,64.76
2018-10-02T14:15:40.406Z,64.13
2018-10-02T14:18:10.219Z,64.32
2018-10-02T14:20:40.180Z,63.65
2018-10-02T14:23:09.981Z,64.03
2018-10-02T14:25:39.779Z,64.09
2018-10-02T14:28:09.705Z,63.94
2018-10-02T14:30:39.859Z,64.26
2018-10-02T14:33:09.699Z,66.81
2018-10-02T14:35:39.699Z,66.50
2018-10-02T14:38:09.552Z,66.93
2018-10-02T14:40:39.539Z,67.95
2018-10-02T14:43:09.482Z,68.55
2018-10-02T14:45:39.939Z,66.65
2018-10-02T14:48:09.781Z,67.20
2018-10-02T14:50:39.640Z,62.70
2018-10-02T14:53:09.380Z,57.38
2018-10-02T14:55:39.219Z,52.51
2018-10-02T14:58:09.118Z,51.58
2018-10-02T15:00:38.978Z,52.45
2018-10-02T15:03:08.639Z,52.85
2018-10-02T15:05:38.530Z,53.23
2018-10-02T15:08:08.380Z,53.27
2018-10-02T15:10:38.532Z,53.85
2018-10-02T15:13:08.293Z,53.89
2018-10-02T15:15:38.274Z,55.12
2018-10-02T15:18:08.647Z,59.56
2018-10-02T15:20:39.387Z,61.03
2018-10-02T15:23:09.296Z,60.96
2018-10-02T15:25:39.142Z,61.49
2018-10-02T15:28:09.039Z,60.78
2018-10-02T15:30:40.452Z,62.04
2018-10-02T15:33:10.569Z,61.72
2018-10-02T15:35:41.085Z,61.45
2018-10-02T15:38:11.228Z,61.60
2018-10-02T15:40:41.339Z,60.95
2018-10-02T15:43:13.310Z,60.99
2018-10-02T15:45:44.898Z,62.35
2018-10-02T15:48:14.724Z,63.83
2018-10-02T15:50:44.942Z,65.63
2018-10-02T15:53:15.062Z,66.23
2018-10-02T15:55:44.782Z,66.69
2018-10-02T15:58:14.460Z,68.37
2018-10-02T16:00:44.404Z,68.83
2018-10-02T16:03:14.146Z,69.83
2018-10-02T16:05:43.985Z,71.08
2018-10-02T16:08:13.773Z,71.46
2018-10-02T16:10:43.722Z,71.46
2018-10-02T16:13:13.520Z,71.57
2018-10-02T16:15:43.806Z,72.12
2018-10-02T16:18:13.756Z,74.38
2018-10-02T16:20:43.522Z,75.34
2018-10-02T16:23:13.397Z,77.25
2018-10-02T16:25:43.309Z,78.04
2018-10-02T16:28:13.004Z,78.94
2018-10-02T16:30:42.912Z,79.57
2018-10-02T16:33:12.582Z,79.38
2018-10-02T16:35:42.914Z,79.84
2018-10-02T16:38:12.692Z,79.62
2018-10-02T16:40:43.043Z,79.03
2018-10-02T16:43:12.802Z,79.70
2018-10-02T16:45:42.581Z,80.57
2018-10-02T16:48:12.483Z,81.45
2018-10-02T16:50:43.222Z,81.66
2018-10-02T16:53:12.845Z,81.55
2018-10-02T16:55:42.814Z,81.83
2018-10-02T16:58:12.545Z,82.10
2018-10-02T17:00:42.307Z,81.76
2018-10-02T17:03:12.259Z,81.09
2018-10-02T17:05:42.449Z,81.28
2018-10-02T17:08:12.427Z,80.91
2018-10-02T17:10:42.427Z,80.03
2018-10-02T17:13:12.337Z,79.71
2018-10-02T17:15:42.706Z,79.89
2018-10-02T17:18:12.652Z,79.61
2018-10-02T17:20:42.831Z,80.27
2018-10-02T17:23:12.528Z,79.86
2018-10-02T17:25:42.410Z,79.93
2018-10-02T17:28:12.101Z,79.79
2018-10-02T17:30:42.102Z,79.82
2018-10-02T17:33:11.896Z,79.84
2018-10-02T17:35:41.776Z,80.44
2018-10-02T17:38:12.781Z,80.18
2018-10-02T17:40:43.788Z,80.67
2018-10-02T17:43:13.396Z,79.95
2018-10-02T17:45:46.764Z,80.18
2018-10-02T17:48:20.059Z,80.73
2018-10-02T17:50:50.401Z,80.79
2018-10-02T17:53:20.190Z,81.28
2018-10-02T17:55:50.146Z,81.36
2018-10-02T17:58:19.969Z,81.48
2018-10-02T18:00:50.675Z,81.66
2018-10-02T18:03:20.634Z,82.16
2018-10-02T18:05:50.746Z,82.28
2018-10-02T18:08:21.201Z,82.53
2018-10-02T18:10:51.141Z,82.47
2018-10-02T18:13:21.076Z,83.02
2018-10-02T18:15:51.282Z,83.50
2018-10-02T18:18:21.452Z,84.00
2018-10-02T18:20:51.820Z,83.71
2018-10-02T18:23:22.119Z,83.73
2018-10-02T18:25:52.125Z,84.28
2018-10-02T18:28:21.854Z,84.14
2018-10-02T18:30:52.212Z,85.08
2018-10-02T18:33:22.099Z,84.97
2018-10-02T18:35:52.484Z,85.20
2018-10-02T18:38:22.117Z,86.13
2018-10-02T18:40:52.873Z,85.87
2018-10-02T18:43:25.940Z,85.93
2018-10-02T18:45:59.775Z,86.05
2018-10-02T18:48:29.389Z,86.17
2018-10-02T18:50:59.757Z,85.89
2018-10-02T18:53:30.190Z,86.34
2018-10-02T18:56:00.339Z,86.93
2018-10-02T18:58:30.222Z,86.67
2018-10-02T19:01:00.323Z,86.63
2018-10-02T19:03:30.186Z,87.02
2018-10-02T19:06:00.136Z,86.45
2018-10-02T19:08:34.893Z,86.83
2018-10-02T19:11:09.777Z,86.72
2018-10-02T19:13:39.808Z,86.92
2018-10-02T19:16:14.735Z,87.80
2018-10-02T19:18:44.699Z,87.93
2018-10-02T19:21:14.562Z,87.98
2018-10-02T19:23:44.521Z,88.07
2018-10-02T19:26:20.740Z,87.63
2018-10-02T19:28:51.095Z,87.90
2018-10-02T19:31:26.714Z,88.06
2018-10-02T19:33:57.346Z,87.50
2018-10-02T19:36:27.471Z,87.76
2018-10-02T19:39:00.348Z,88.30
2018-10-02T19:41:31.275Z,88.36
2018-10-02T19:44:01.137Z,88.37
2018-10-02T19:46:36.184Z,87.96
2018-10-02T19:49:06.105Z,87.36
2018-10-02T19:51:41.030Z,87.68
2018-10-02T19:54:11.088Z,87.65
2018-10-02T19:56:40.915Z,88.23
2018-10-02T19:59:10.721Z,88.78
2018-10-02T20:01:40.812Z,88.63
2018-10-02T20:04:10.564Z,89.38
2018-10-02T20:06:40.941Z,89.19
2018-10-02T20:09:11.626Z,89.32
2018-10-02T20:11:41.437Z,89.63
2018-10-02T20:14:12.176Z,89.17
2018-10-02T20:16:42.133Z,89.31
2018-10-02T20:19:11.938Z,89.41
2018-10-02T20:21:41.962Z,89.54
2018-10-02T20:24:11.709Z,90.36
2018-10-02T20:26:42.318Z,90.63
2018-10-02T20:29:12.185Z,90.68
2018-10-02T20:31:46.182Z,90.47
2018-10-02T20:34:15.838Z,90.60
2018-10-02T20:36:46.078Z,90.72
2018-10-02T20:39:15.738Z,90.70
2018-10-02T20:41:45.764Z,90.73
2018-10-02T20:44:16.044Z,89.94
2018-10-02T20:46:46.272Z,90.26
2018-10-02T20:49:16.289Z,90.04
2018-10-02T20:51:46.172Z,90.35
2018-10-02T20:54:15.951Z,90.41
2018-10-02T20:56:46.245Z,90.39
2018-10-02T20:59:16.032Z,90.37
2018-10-02T21:01:45.817Z,90.24
2018-10-02T21:04:15.909Z,90.31
2018-10-02T21:06:46.230Z,90.32
2018-10-02T21:09:15.916Z,90.29
2018-10-02T21:11:45.633Z,90.17
2018-10-02T21:14:15.362Z,90.33
2018-10-02T21:16:45.334Z,90.40
2018-10-02T21:19:15.053Z,90.53
2018-10-02T21:21:44.874Z,90.48
2018-10-02T21:24:14.909Z,90.44
2018-10-02T21:26:45.408Z,90.60
2018-10-02T21:29:15.364Z,91.01
2018-10-02T21:31:45.264Z,90.98
2018-10-02T21:34:15.135Z,91.21
2018-10-02T21:36:45.113Z,91.13
2018-10-02T21:39:14.945Z,90.52
2018-10-02T21:41:44.905Z,90.79
2018-10-02T21:44:14.924Z,91.01
2018-10-02T21:46:44.953Z,90.81
2018-10-02T21:49:14.886Z,91.07
2018-10-02T21:51:44.880Z,90.87
2018-10-02T21:54:14.874Z,90.77
2018-10-02T21:56:44.723Z,90.73
2018-10-02T21:59:14.594Z,90.77
2018-10-02T22:01:44.612Z,91.00
2018-10-02T22:04:14.650Z,90.54
2018-10-02T22:06:44.414Z,90.53
2018-10-02T22:09:14.262Z,90.40
2018-10-02T22:11:44.342Z,90.25
2018-10-02T22:14:14.275Z,90.58
2018-10-02T22:16:44.221Z,90.58
2018-10-02T22:19:14.166Z,90.38
2018-10-02T22:21:44.177Z,90.30
2018-10-02T22:24:14.033Z,90.08
2018-10-02T22:26:43.742Z,89.82
2018-10-02T22:29:13.864Z,90.28
2018-10-02T22:31:43.832Z,90.03
2018-10-02T22:34:13.811Z,89.68
2018-10-02T22:36:43.841Z,90.10
2018-10-02T22:39:13.747Z,90.10
2018-10-02T22:41:43.588Z,90.46
2018-10-02T22:44:13.410Z,90.57
2018-10-02T22:46:43.279Z,90.46
2018-10-02T22:49:13.118Z,90.70
2018-10-02T22:51:42.999Z,90.56
2018-10-02T22:54:12.967Z,90.72
2018-10-02T22:56:42.757Z,90.73
2018-10-02T22:59:12.802Z,90.44
2018-10-02T23:01:44.188Z,90.54
2018-10-02T23:04:13.966Z,90.22
2018-10-02T23:06:44.764Z,90.35
2018-10-02T23:09:14.568Z,90.70
2018-10-02T23:11:46.179Z,90.59
2018-10-02T23:14:16.073Z,90.51
2018-10-02T23:16:47.639Z,90.22
2018-10-02T23:19:17.489Z,90.84
2018-10-02T23:21:49.019Z,90.89
2018-10-02T23:24:19.088Z,91.00
2018-10-02T23:26:50.486Z,91.09
2018-10-02T23:29:20.580Z,91.28
2018-10-02T23:31:52.283Z,91.37
2018-10-02T23:34:22.290Z,91.43
2018-10-02T23:36:53.171Z,91.53
2018-10-02T23:39:22.936Z,91.91
2018-10-02T23:41:53.531Z,91.66
2018-10-02T23:44:23.434Z,91.65
2018-10-02T23:46:54.341Z,92.06
2018-10-02T23:49:24.979Z,91.77
2018-10-02T23:51:55.682Z,91.78
2018-10-02T23:54:26.490Z,91.63
2018-10-02T23:56:56.517Z,91.71
2018-10-02T23:59:26.461Z,91.90
